Terminal Aerodrome Forecast
Issued by NWS Sterling, VA

Current Version | Previous Version | Graphics & Text | Print | Product List | Glossary On
Versions: 1 2 3 4 5 6 7 8 9 10 11 12 13 14 15 16 17 18 19 20
108
FTUS41 KLWX 182104 AAA
TAFDCA
TAF AMD
KDCA 182104Z 1821/1918 17007KT P6SM VCTS SCT050CB
      TEMPO 1821/1822 VRB25KT 3SM TSRA OVC050CB
     FM190000 17005KT P6SM SCT050=

USA.gov is the U.S. government's official web portal to all federal, state and local government web resources and services.